Time;durP1;ratioP1;P1;durP2;ratioP2;P2;SDS_P1;SDS_P2;PMS_P1;PMS_P2;Temp;Humidity;BMP_temperature;BMP_pressure;BME280_temperature;BME280_humidity;BME280_pressure;Samples;Min_cycle;Max_cycle;Signal;HPM_P1;HPM_P2
2022/12/03 00:02:19;;;;;;;21.30;16.10;;;3.70;99.90;;;;;;5053467;28;20441;-60
2022/12/03 00:04:47;;;;;;;23.60;16.07;;;3.70;99.90;;;;;;5053273;28;20540;-60
2022/12/03 00:07:14;;;;;;;26.67;16.47;;;3.70;99.90;;;;;;5053110;28;20988;-60
2022/12/03 00:09:41;;;;;;;22.67;17.40;;;3.70;99.90;;;;;;5053604;28;20445;-60
2022/12/03 00:12:10;;;;;;;25.07;16.70;;;3.60;99.90;;;;;;5053231;28;20781;-60
2022/12/03 00:14:37;;;;;;;25.07;17.80;;;3.70;99.90;;;;;;5053216;28;20495;-61
2022/12/03 00:17:05;;;;;;;21.90;17.07;;;3.70;99.90;;;;;;5053132;28;20457;-60
2022/12/03 00:19:32;;;;;;;26.43;16.90;;;3.70;99.90;;;;;;5053332;28;20448;-60
2022/12/03 00:21:59;;;;;;;24.77;16.60;;;3.70;99.90;;;;;;5053151;28;20441;-60
2022/12/03 00:24:27;;;;;;;25.73;17.60;;;3.80;99.90;;;;;;5052701;28;20464;-60
2022/12/03 00:26:54;;;;;;;23.97;14.73;;;3.80;99.90;;;;;;5053148;28;20480;-60
2022/12/03 00:29:23;;;;;;;22.40;15.93;;;3.90;99.90;;;;;;5052906;28;20460;-60
2022/12/03 00:31:50;;;;;;;25.37;16.40;;;3.80;99.90;;;;;;5053057;28;20445;-60
2022/12/03 00:34:18;;;;;;;27.27;17.20;;;3.90;99.90;;;;;;5053173;28;20456;-60
2022/12/03 00:36:45;;;;;;;22.37;16.17;;;4.00;99.90;;;;;;5052907;28;20473;-59
2022/12/03 00:39:12;;;;;;;19.60;16.03;;;3.90;99.90;;;;;;5052845;28;20472;-60
2022/12/03 00:41:40;;;;;;;25.63;15.60;;;3.90;99.90;;;;;;5052965;28;20445;-60
2022/12/03 00:44:07;;;;;;;25.70;16.60;;;4.00;99.90;;;;;;5053082;28;20456;-59
2022/12/03 00:46:36;;;;;;;24.30;16.23;;;3.90;99.90;;;;;;5053661;28;20468;-60
2022/12/03 00:49:03;;;;;;;24.47;17.90;;;3.90;99.90;;;;;;5056710;28;20999;-60
2022/12/03 00:51:31;;;;;;;25.43;15.87;;;3.90;99.90;;;;;;5057202;28;20944;-60
2022/12/03 00:53:58;;;;;;;26.07;18.63;;;4.00;99.90;;;;;;5056708;28;20936;-59
2022/12/03 00:56:25;;;;;;;26.90;17.97;;;4.00;99.90;;;;;;5057172;28;20559;-60
2022/12/03 00:58:53;;;;;;;24.47;17.13;;;4.00;99.90;;;;;;5056933;28;20449;-60
2022/12/03 01:01:20;;;;;;;25.70;17.20;;;4.10;99.90;;;;;;5056728;28;20457;-60
2022/12/03 01:03:49;;;;;;;21.37;15.37;;;4.10;99.90;;;;;;5056859;28;20452;-60
2022/12/03 01:06:16;;;;;;;25.23;17.20;;;4.20;99.90;;;;;;5056542;28;20475;-60
2022/12/03 01:08:43;;;;;;;22.87;15.80;;;4.20;99.90;;;;;;5056618;28;20485;-60
2022/12/03 01:13:52;;;;;;;26.70;16.20;;;4.20;99.90;;;;;;5056181;28;20512;-60
2022/12/03 01:16:19;;;;;;;24.37;15.67;;;4.20;99.90;;;;;;5056368;28;20468;-59
2022/12/03 01:18:51;;;;;;;22.30;16.63;;;4.20;99.90;;;;;;5056253;28;20919;-59
2022/12/03 01:21:18;;;;;;;23.30;17.27;;;4.20;99.90;;;;;;5056693;28;20788;-59
2022/12/03 01:23:46;;;;;;;22.07;16.30;;;4.30;99.90;;;;;;5056484;28;20473;-60
2022/12/03 01:26:13;;;;;;;22.40;15.30;;;4.30;99.90;;;;;;5055951;28;20480;-59
2022/12/03 01:28:41;;;;;;;24.13;15.67;;;4.30;99.90;;;;;;5056269;28;20487;-59
2022/12/03 01:33:55;;;;;;;24.33;15.83;;;4.30;99.90;;;;;;5056575;28;20455;-60
2022/12/03 01:36:23;;;;;;;19.60;14.13;;;4.20;99.90;;;;;;5056327;28;20465;-60
2022/12/03 01:38:50;;;;;;;22.60;14.80;;;4.30;99.90;;;;;;5056627;28;20449;-59
2022/12/03 01:41:18;;;;;;;18.77;13.97;;;4.30;99.90;;;;;;5056298;28;20445;-60
2022/12/03 01:43:46;;;;;;;17.30;14.70;;;4.20;99.90;;;;;;5056149;28;20866;-60
2022/12/03 01:46:15;;;;;;;17.57;12.63;;;4.30;99.90;;;;;;5055851;28;20469;-60
2022/12/03 01:48:43;;;;;;;18.87;14.53;;;4.30;99.90;;;;;;5055631;28;20983;-60
2022/12/03 01:51:13;;;;;;;17.07;13.93;;;4.30;99.90;;;;;;5056131;28;20476;-60
2022/12/03 01:53:40;;;;;;;15.17;12.53;;;4.30;99.90;;;;;;5055599;28;20453;-60
2022/12/03 01:56:09;;;;;;;17.87;13.37;;;4.20;99.90;;;;;;5056022;28;20484;-60
2022/12/03 01:58:36;;;;;;;16.53;12.73;;;4.20;99.90;;;;;;5055061;28;20433;-59
2022/12/03 02:01:11;;;;;;;17.30;12.70;;;4.30;99.90;;;;;;5055941;28;20480;-60
2022/12/03 02:03:39;;;;;;;15.23;12.60;;;4.30;99.90;;;;;;5055616;28;20429;-60
2022/12/03 02:06:14;;;;;;;20.17;14.17;;;4.40;99.90;;;;;;5055476;28;20462;-59
2022/12/03 02:08:41;;;;;;;14.60;12.67;;;4.30;99.90;;;;;;5055732;28;20465;-59
2022/12/03 02:11:13;;;;;;;18.10;13.30;;;4.30;99.90;;;;;;5055269;28;20484;-60
2022/12/03 02:13:40;;;;;;;17.57;13.40;;;4.30;99.90;;;;;;5055735;28;20438;-60
2022/12/03 02:16:08;;;;;;;15.53;12.30;;;4.30;99.90;;;;;;5055455;28;20878;-60
2022/12/03 02:18:36;;;;;;;16.30;13.60;;;4.30;99.90;;;;;;5055572;28;20464;-60
2022/12/03 02:21:09;;;;;;;15.00;12.33;;;4.20;99.90;;;;;;5055112;28;20451;-59
2022/12/03 02:23:45;;;;;;;18.63;13.70;;;4.30;99.90;;;;;;5055096;28;20487;-59
2022/12/03 02:26:14;;;;;;;20.50;14.67;;;4.30;99.90;;;;;;5054722;28;20581;-59
2022/12/03 02:28:41;;;;;;;16.40;13.23;;;4.40;99.90;;;;;;5055577;28;20526;-59
2022/12/03 02:31:09;;;;;;;15.63;13.40;;;4.40;99.90;;;;;;5054922;28;20460;-59
2022/12/03 02:33:36;;;;;;;21.87;13.80;;;4.40;99.90;;;;;;5055318;28;20445;-60
2022/12/03 02:36:04;;;;;;;20.30;15.13;;;4.30;99.90;;;;;;5055094;28;21018;-59
2022/12/03 02:38:34;;;;;;;20.53;14.70;;;4.20;99.90;;;;;;5055231;28;20453;-59
2022/12/03 02:41:04;;;;;;;18.73;15.17;;;4.20;99.90;;;;;;5054714;28;20502;-59
2022/12/03 02:43:32;;;;;;;17.53;13.13;;;4.20;99.90;;;;;;5054891;28;20465;-59
2022/12/03 02:46:02;;;;;;;20.50;14.93;;;4.30;99.90;;;;;;5054572;28;20465;-59
2022/12/03 02:48:33;;;;;;;19.00;15.37;;;4.30;99.90;;;;;;5054636;28;20842;-60
2022/12/03 02:51:03;;;;;;;22.20;14.70;;;4.40;99.90;;;;;;5054900;28;20456;-60
2022/12/03 02:53:34;;;;;;;21.10;13.70;;;4.30;99.90;;;;;;5054634;28;20453;-59
2022/12/03 02:56:03;;;;;;;20.40;13.80;;;4.30;99.90;;;;;;5054707;28;20476;-59
2022/12/03 02:58:33;;;;;;;19.13;14.30;;;4.30;99.90;;;;;;5054828;28;20448;-59
2022/12/03 03:01:02;;;;;;;20.33;14.93;;;4.30;99.90;;;;;;5054361;28;20430;-60
2022/12/03 03:03:31;;;;;;;18.83;14.77;;;4.10;99.90;;;;;;5054426;28;20449;-60
2022/12/03 03:05:59;;;;;;;23.40;13.77;;;4.10;99.90;;;;;;5054508;28;20505;-60
2022/12/03 03:08:32;;;;;;;21.00;13.77;;;4.20;99.90;;;;;;5054223;28;20567;-60
2022/12/03 03:11:01;;;;;;;18.83;14.70;;;4.30;99.90;;;;;;5053590;28;20445;-59
2022/12/03 03:13:31;;;;;;;22.87;15.17;;;4.30;99.90;;;;;;5054245;28;20816;-59
2022/12/03 03:16:01;;;;;;;16.30;13.37;;;4.30;99.90;;;;;;5054510;28;20860;-60
2022/12/03 03:18:29;;;;;;;20.87;16.70;;;4.30;99.90;;;;;;5054755;28;20835;-60
2022/12/03 03:20:56;;;;;;;26.50;16.90;;;4.30;99.90;;;;;;5054426;28;20449;-59
2022/12/03 03:23:25;;;;;;;23.37;14.90;;;4.40;99.90;;;;;;5054030;28;20453;-59
2022/12/03 03:25:56;;;;;;;22.20;15.13;;;4.40;99.90;;;;;;5053800;28;20489;-59
2022/12/03 03:28:25;;;;;;;23.13;14.83;;;4.30;99.90;;;;;;5053887;28;20990;-59
2022/12/03 03:30:53;;;;;;;24.90;15.40;;;4.40;99.90;;;;;;5054231;28;20449;-60
2022/12/03 03:33:22;;;;;;;26.90;14.13;;;4.40;99.90;;;;;;5054048;28;20456;-60
2022/12/03 03:35:50;;;;;;;23.57;17.10;;;4.30;99.90;;;;;;5053780;28;20504;-59
2022/12/03 03:38:19;;;;;;;18.33;13.90;;;4.30;99.90;;;;;;5054084;28;20831;-59
2022/12/03 03:40:48;;;;;;;17.73;14.83;;;4.30;99.90;;;;;;5054023;28;20453;-59
2022/12/03 03:43:15;;;;;;;24.73;15.60;;;4.40;99.90;;;;;;5054036;28;20480;-60
2022/12/03 03:45:44;;;;;;;23.70;15.63;;;4.40;99.90;;;;;;5053915;28;20473;-60
2022/12/03 03:48:12;;;;;;;22.50;15.30;;;4.40;99.90;;;;;;5053572;28;20484;-60
2022/12/03 03:50:42;;;;;;;16.70;14.27;;;4.40;99.90;;;;;;5053559;28;20548;-60
2022/12/03 03:53:11;;;;;;;20.73;14.63;;;4.50;99.90;;;;;;5053524;28;20457;-60
2022/12/03 03:55:39;;;;;;;21.33;14.00;;;4.50;99.90;;;;;;5053694;28;20535;-60
2022/12/03 03:58:06;;;;;;;21.77;15.90;;;4.50;99.90;;;;;;5053731;28;20507;-60
2022/12/03 04:00:34;;;;;;;19.20;13.90;;;4.50;99.90;;;;;;5053756;28;20480;-60
2022/12/03 04:03:03;;;;;;;20.90;15.40;;;4.50;99.90;;;;;;5053416;28;20441;-60
2022/12/03 04:05:31;;;;;;;23.77;15.37;;;4.50;99.90;;;;;;5053539;28;20465;-59
2022/12/03 04:08:00;;;;;;;19.70;14.30;;;4.50;99.90;;;;;;5053586;28;20453;-60
2022/12/03 04:13:12;;;;;;;20.70;13.90;;;4.40;99.90;;;;;;5053244;28;20459;-60
2022/12/03 04:15:39;;;;;;;23.13;14.53;;;4.40;99.90;;;;;;5053487;28;20469;-60
2022/12/03 04:22:38;;;;;;;21.93;15.20;;;4.50;99.90;;;;;;5053245;28;20456;-59
2022/12/03 04:23:39;;;;;;;20.83;16.93;;;4.40;99.90;;;;;;5053171;28;20433;-60
2022/12/03 04:28:51;;;;;;;24.20;16.00;;;4.40;99.90;;;;;;5053085;28;20465;-59
2022/12/03 04:36:48;;;;;;;26.70;15.73;;;4.40;99.90;;;;;;5052968;28;20444;-60
2022/12/03 04:39:17;;;;;;;22.20;16.93;;;4.50;99.90;;;;;;5053252;28;20848;-60
2022/12/03 04:41:44;;;;;;;21.73;16.93;;;4.40;99.90;;;;;;5053223;28;20526;-59
2022/12/03 04:46:56;;;;;;;23.60;16.00;;;4.20;99.90;;;;;;5052875;28;20522;-59
2022/12/03 04:49:23;;;;;;;25.00;17.60;;;4.30;99.90;;;;;;5053141;28;20477;-60
2022/12/03 04:51:51;;;;;;;22.70;16.23;;;4.30;99.90;;;;;;5052751;28;20928;-60
2022/12/03 04:54:20;;;;;;;24.53;16.80;;;4.30;99.90;;;;;;5053013;28;20457;-60
2022/12/03 04:56:47;;;;;;;22.30;14.90;;;4.40;99.90;;;;;;5052880;28;20488;-60
2022/12/03 04:59:15;;;;;;;24.63;16.57;;;4.40;99.90;;;;;;5052791;28;20454;-59
2022/12/03 05:01:42;;;;;;;21.90;16.50;;;4.30;99.90;;;;;;5052955;28;20529;-59
2022/12/03 05:04:09;;;;;;;27.43;16.23;;;4.30;99.90;;;;;;5053088;28;20457;-59
2022/12/03 05:06:37;;;;;;;25.93;17.63;;;4.30;99.90;;;;;;5052565;28;20572;-59
2022/12/03 05:09:04;;;;;;;20.83;16.20;;;4.30;99.90;;;;;;5052639;28;20473;-59
2022/12/03 05:11:33;;;;;;;26.80;17.43;;;4.30;99.90;;;;;;5052529;28;20449;-59
2022/12/03 05:14:01;;;;;;;25.50;16.60;;;4.30;99.90;;;;;;5052640;28;20445;-59
2022/12/03 05:16:28;;;;;;;24.10;15.67;;;4.30;99.90;;;;;;5052459;28;20476;-59
2022/12/03 05:18:55;;;;;;;23.30;16.87;;;4.20;99.90;;;;;;5052959;28;20476;-59
2022/12/03 05:21:23;;;;;;;23.03;16.60;;;4.20;99.90;;;;;;5052820;28;20441;-59
2022/12/03 05:23:51;;;;;;;24.03;15.70;;;4.20;99.90;;;;;;5052537;28;20457;-59
2022/12/03 05:26:19;;;;;;;22.97;16.67;;;4.20;99.90;;;;;;5050856;28;21018;-60
2022/12/03 05:28:48;;;;;;;22.10;15.67;;;4.20;99.90;;;;;;5052435;28;20489;-59
2022/12/03 05:31:15;;;;;;;24.13;15.27;;;4.20;99.90;;;;;;5052761;28;20472;-60
2022/12/03 05:33:42;;;;;;;23.57;15.60;;;4.30;99.90;;;;;;5055129;28;20457;-60
2022/12/03 05:36:10;;;;;;;28.40;18.20;;;4.30;99.90;;;;;;5056338;28;20475;-59
2022/12/03 05:38:37;;;;;;;28.50;17.40;;;4.20;99.90;;;;;;5055923;28;20503;-60
2022/12/03 05:42:52;;;;;;;21.83;16.70;;;4.20;99.90;;;;;;5056250;28;20455;-60
2022/12/03 05:43:53;;;;;;;21.53;15.40;;;4.20;99.90;;;;;;5055962;28;20421;-61
2022/12/03 05:46:20;;;;;;;26.10;16.10;;;4.20;99.90;;;;;;5056021;28;20543;-60
2022/12/03 05:48:48;;;;;;;23.03;15.40;;;4.30;99.90;;;;;;5055809;28;21032;-59
2022/12/03 05:51:15;;;;;;;24.70;17.50;;;4.20;99.90;;;;;;5055646;28;20456;-60
2022/12/03 05:53:43;;;;;;;25.27;16.67;;;4.20;99.90;;;;;;5056050;28;20482;-60
2022/12/03 05:56:10;;;;;;;25.60;18.00;;;4.30;99.90;;;;;;5055338;28;20516;-60
2022/12/03 05:58:37;;;;;;;24.67;18.20;;;4.30;99.90;;;;;;5055607;28;20491;-60
2022/12/03 06:01:06;;;;;;;23.83;15.33;;;4.30;99.90;;;;;;5055441;28;20441;-60
2022/12/03 06:03:34;;;;;;;24.50;17.33;;;4.30;99.90;;;;;;5055568;28;20510;-59
2022/12/03 06:06:02;;;;;;;24.33;17.00;;;4.30;99.90;;;;;;5055324;28;20469;-59
2022/12/03 06:08:29;;;;;;;24.80;18.90;;;4.30;99.90;;;;;;5055684;28;20449;-59
2022/12/03 06:10:56;;;;;;;22.47;16.33;;;4.30;99.90;;;;;;5055345;28;20457;-59
2022/12/03 06:13:24;;;;;;;26.83;17.07;;;4.30;99.90;;;;;;5055374;28;20900;-59
2022/12/03 06:15:51;;;;;;;23.87;16.20;;;4.30;99.90;;;;;;5055271;28;20523;-59
2022/12/03 06:18:20;;;;;;;21.83;15.70;;;4.30;99.90;;;;;;5055555;28;20499;-60
2022/12/03 06:20:47;;;;;;;28.43;17.10;;;4.30;99.90;;;;;;5055217;28;20442;-59
2022/12/03 06:23:14;;;;;;;23.40;15.63;;;4.30;99.90;;;;;;5055356;28;20457;-60
2022/12/03 06:25:45;;;;;;;27.23;16.30;;;4.30;99.90;;;;;;5054860;28;20477;-59
2022/12/03 06:28:12;;;;;;;22.97;16.40;;;4.30;99.90;;;;;;5054882;28;20449;-60
2022/12/03 06:30:39;;;;;;;23.13;16.87;;;4.30;99.90;;;;;;5054952;28;20979;-60
2022/12/03 06:33:07;;;;;;;27.30;17.87;;;4.40;99.90;;;;;;5054965;28;20454;-60
2022/12/03 06:35:36;;;;;;;28.30;17.43;;;4.40;99.90;;;;;;5055234;28;20469;-60
2022/12/03 06:38:03;;;;;;;26.60;17.17;;;4.30;99.90;;;;;;5055167;28;20449;-59
2022/12/03 06:40:31;;;;;;;26.93;18.60;;;4.30;99.90;;;;;;5054892;28;20509;-59
2022/12/03 06:42:58;;;;;;;26.97;17.37;;;4.30;99.90;;;;;;5055136;28;20453;-59
2022/12/03 06:45:26;;;;;;;26.07;17.07;;;4.30;99.90;;;;;;5054759;28;20499;-60
2022/12/03 06:47:53;;;;;;;27.60;17.50;;;4.30;99.90;;;;;;5054964;28;20445;-59
2022/12/03 06:50:20;;;;;;;28.63;18.83;;;4.40;99.90;;;;;;5054662;28;20980;-60
2022/12/03 06:52:49;;;;;;;25.00;19.13;;;4.50;99.90;;;;;;5054836;28;20536;-60
2022/12/03 06:55:17;;;;;;;22.07;16.03;;;4.40;99.90;;;;;;5054383;28;20481;-60
2022/12/03 06:57:44;;;;;;;26.17;17.23;;;4.40;99.90;;;;;;5054501;28;20947;-60
2022/12/03 07:00:13;;;;;;;27.20;19.30;;;4.40;99.90;;;;;;5054577;28;20445;-60
2022/12/03 07:02:40;;;;;;;25.10;17.13;;;4.40;99.90;;;;;;5054672;28;20453;-60
2022/12/03 07:05:08;;;;;;;27.27;16.47;;;4.30;99.90;;;;;;5054356;28;20469;-60
2022/12/03 07:07:35;;;;;;;25.77;19.53;;;4.30;99.90;;;;;;5054678;28;20535;-59
2022/12/03 07:10:05;;;;;;;24.83;17.93;;;4.30;99.90;;;;;;5054557;28;20534;-60
2022/12/03 07:12:33;;;;;;;27.93;18.40;;;4.30;99.90;;;;;;5054499;28;20866;-59
2022/12/03 07:15:00;;;;;;;26.10;17.63;;;4.20;99.90;;;;;;5054460;28;20452;-59
2022/12/03 07:17:27;;;;;;;28.63;17.87;;;4.20;99.90;;;;;;5054075;28;20453;-59
2022/12/03 07:19:55;;;;;;;28.80;18.20;;;4.30;99.90;;;;;;5054246;28;20499;-59
2022/12/03 07:22:22;;;;;;;31.70;18.03;;;4.30;99.90;;;;;;5053798;28;20450;-59
2022/12/03 07:24:49;;;;;;;30.27;18.93;;;4.30;99.90;;;;;;5053691;28;20554;-60
2022/12/03 07:27:18;;;;;;;27.00;18.60;;;4.40;99.90;;;;;;5053897;28;20441;-60
2022/12/03 07:29:45;;;;;;;27.33;19.00;;;4.30;99.90;;;;;;5053819;28;20493;-59
2022/12/03 07:32:13;;;;;;;33.30;20.20;;;4.30;99.90;;;;;;5053846;28;20948;-60
2022/12/03 07:34:40;;;;;;;34.33;20.07;;;4.30;99.90;;;;;;5053885;28;20453;-60
2022/12/03 07:37:07;;;;;;;29.33;18.00;;;4.40;99.90;;;;;;5053836;28;20552;-59
2022/12/03 07:39:35;;;;;;;35.40;20.00;;;4.30;99.90;;;;;;5053806;28;20440;-59
2022/12/03 07:42:02;;;;;;;34.27;18.97;;;4.30;99.90;;;;;;5054038;28;20877;-60
2022/12/03 07:44:31;;;;;;;32.80;21.27;;;4.40;99.90;;;;;;5053612;28;20444;-60
2022/12/03 07:46:59;;;;;;;30.97;19.53;;;4.40;99.90;;;;;;5053583;28;20465;-60
2022/12/03 07:49:26;;;;;;;27.60;18.43;;;4.40;99.90;;;;;;5053389;28;20534;-60
2022/12/03 07:51:55;;;;;;;30.67;17.53;;;4.30;99.90;;;;;;5053594;28;20483;-60
2022/12/03 07:54:23;;;;;;;30.67;19.07;;;4.30;99.90;;;;;;5053190;28;20496;-59
2022/12/03 07:56:50;;;;;;;34.60;20.07;;;4.30;99.90;;;;;;5052999;28;20815;-60
2022/12/03 07:59:18;;;;;;;35.90;21.20;;;4.40;99.90;;;;;;5053505;28;20445;-60
2022/12/03 08:01:47;;;;;;;35.53;22.20;;;4.40;99.90;;;;;;5053398;28;20540;-60
2022/12/03 08:04:17;;;;;;;32.00;19.80;;;4.40;99.90;;;;;;5053649;28;20514;-60
2022/12/03 08:06:45;;;;;;;35.00;19.80;;;4.30;99.90;;;;;;5053268;28;20495;-60
2022/12/03 08:09:12;;;;;;;32.27;19.50;;;4.20;99.90;;;;;;5052896;28;20457;-60
2022/12/03 08:11:40;;;;;;;34.07;20.67;;;4.30;99.90;;;;;;5053387;28;20453;-60
2022/12/03 08:14:12;;;;;;;32.03;20.10;;;4.30;99.90;;;;;;5052944;28;20951;-60
2022/12/03 08:16:40;;;;;;;30.20;18.40;;;4.30;99.90;;;;;;5052411;28;20879;-60
2022/12/03 08:19:12;;;;;;;15.30;10.70;;;4.30;99.90;;;;;;5064976;28;20456;-61
2022/12/03 08:21:40;;;;;;;24.20;14.33;;;7.60;99.90;;;;;;5056912;28;20487;-59
2022/12/03 08:24:14;;;;;;;17.27;11.40;;;10.30;99.90;;;;;;5052713;28;20994;-60
2022/12/03 08:26:43;;;;;;;18.57;13.20;;;11.80;99.90;;;;;;5052223;28;20826;-59
2022/12/03 08:29:12;;;;;;;22.60;15.17;;;12.60;99.90;;;;;;5053232;28;20452;-61
2022/12/03 08:31:40;;;;;;;27.40;18.03;;;13.20;99.90;;;;;;5053188;28;20441;-62
2022/12/03 08:34:17;;;;;;;26.90;16.53;;;9.70;99.90;;;;;;5053076;28;20487;-64
2022/12/03 08:36:46;;;;;;;24.67;16.40;;;8.00;99.90;;;;;;5052782;28;20464;-63
2022/12/03 08:39:28;;;;;;;23.50;16.93;;;7.10;99.90;;;;;;5052844;28;20454;-64
2022/12/03 08:44:44;;;;;;;23.00;17.20;;;5.40;99.90;;;;;;5052813;28;20939;-64
2022/12/03 08:47:16;;;;;;;22.97;15.67;;;5.20;99.90;;;;;;5052002;28;20980;-65
2022/12/03 08:49:51;;;;;;;27.20;15.37;;;5.10;99.90;;;;;;5052899;28;20460;-64
2022/12/03 08:52:20;;;;;;;28.37;18.17;;;5.10;99.90;;;;;;5052274;28;20434;-66
2022/12/03 08:54:52;;;;;;;22.97;16.53;;;4.80;99.90;;;;;;5052277;28;20465;-64
2022/12/03 08:57:26;;;;;;;21.97;14.90;;;4.90;99.90;;;;;;5051914;28;20430;-59
2022/12/03 08:59:58;;;;;;;23.07;16.43;;;4.80;99.90;;;;;;5052625;28;20426;-65
2022/12/03 09:02:33;;;;;;;26.37;18.10;;;4.60;99.90;;;;;;5043510;28;20484;-61
2022/12/03 09:05:13;;;;;;;27.80;16.07;;;4.60;99.90;;;;;;5032495;28;20435;-63
2022/12/03 09:07:40;;;;;;;24.77;14.57;;;4.50;99.90;;;;;;5040324;28;20773;-60
2022/12/03 09:10:09;;;;;;;26.20;17.17;;;4.50;99.90;;;;;;5046954;28;20778;-62
2022/12/03 09:12:36;;;;;;;28.50;17.00;;;4.40;99.90;;;;;;5053128;28;20449;-59
2022/12/03 09:15:04;;;;;;;25.10;15.90;;;4.50;99.90;;;;;;5056039;28;20815;-58
2022/12/03 09:17:31;;;;;;;25.20;16.13;;;4.60;99.90;;;;;;5056130;28;20456;-59
2022/12/03 09:19:59;;;;;;;25.77;14.53;;;4.80;99.90;;;;;;5056178;28;20496;-64
2022/12/03 09:22:28;;;;;;;29.93;15.40;;;5.50;99.90;;;;;;5055605;28;20460;-57
2022/12/03 09:24:55;;;;;;;22.97;15.53;;;5.80;99.90;;;;;;5055950;28;20596;-58
2022/12/03 09:27:22;;;;;;;23.70;16.53;;;6.60;99.90;;;;;;5055325;28;20489;-60
2022/12/03 09:29:49;;;;;;;29.90;17.00;;;5.90;99.90;;;;;;5051852;28;20478;-59
2022/12/03 09:32:17;;;;;;;28.40;18.03;;;5.50;99.90;;;;;;5036291;28;20485;-62
2022/12/03 09:34:44;;;;;;;28.40;17.50;;;5.10;99.90;;;;;;5049763;28;20832;-62
2022/12/03 09:37:12;;;;;;;28.43;17.60;;;5.30;99.90;;;;;;5054528;28;20457;-58
2022/12/03 09:39:40;;;;;;;27.33;16.17;;;5.10;99.90;;;;;;5038391;28;20917;-61
2022/12/03 09:42:09;;;;;;;33.60;17.60;;;4.90;99.90;;;;;;5035469;28;20454;-57
2022/12/03 09:44:38;;;;;;;26.83;16.50;;;4.80;99.90;;;;;;5036208;28;20450;-59
2022/12/03 09:47:05;;;;;;;28.13;18.63;;;5.30;99.90;;;;;;5035655;28;20488;-60
2022/12/03 09:49:36;;;;;;;28.27;16.83;;;4.90;99.90;;;;;;5035950;28;20454;-62
2022/12/03 09:52:05;;;;;;;27.80;18.57;;;4.70;99.90;;;;;;5035638;28;20446;-58
2022/12/03 09:54:33;;;;;;;28.10;16.70;;;4.80;99.90;;;;;;5035628;28;20461;-58
2022/12/03 09:57:03;;;;;;;29.20;16.73;;;4.70;99.90;;;;;;5035675;28;20578;-61
2022/12/03 09:59:33;;;;;;;32.00;17.37;;;4.60;99.90;;;;;;5035824;28;20445;-56
2022/12/03 10:02:01;;;;;;;23.77;16.63;;;4.70;99.90;;;;;;5035601;28;20878;-56
2022/12/03 10:04:29;;;;;;;34.03;18.80;;;4.50;99.90;;;;;;5035753;28;20454;-57
2022/12/03 10:06:58;;;;;;;25.13;15.03;;;4.60;99.90;;;;;;5035140;28;20968;-61
2022/12/03 10:09:28;;;;;;;26.70;16.27;;;4.80;99.90;;;;;;5035520;28;20533;-57
2022/12/03 10:11:56;;;;;;;23.70;15.10;;;4.60;99.90;;;;;;5034964;28;20536;-57
2022/12/03 10:14:25;;;;;;;20.70;14.37;;;4.50;99.90;;;;;;5035250;28;20485;-60
2022/12/03 10:16:53;;;;;;;23.17;14.77;;;4.50;99.90;;;;;;5034914;28;20502;-60
2022/12/03 10:19:24;;;;;;;20.60;15.43;;;4.50;99.90;;;;;;5035277;28;20446;-57
2022/12/03 10:21:51;;;;;;;21.80;14.53;;;4.50;99.90;;;;;;5035363;28;20497;-62
2022/12/03 10:24:21;;;;;;;20.20;13.00;;;4.50;99.90;;;;;;5035270;28;20512;-58
2022/12/03 10:26:50;;;;;;;23.40;15.03;;;4.50;99.90;;;;;;5034774;28;20855;-57
2022/12/03 10:29:19;;;;;;;14.60;9.83;;;;;;;;;;5034552;28;20516;-57
2022/12/03 10:31:56;;;;;;;21.00;14.73;;;8.00;99.90;;;;;;5034591;28;21001;-56
2022/12/03 10:34:30;;;;;;;18.30;12.90;;;9.50;99.90;;;;;;5034749;28;20516;-54
2022/12/03 10:37:11;;;;;;;35.43;10.40;;;;;;;;;;5034845;28;20548;-56
2022/12/03 10:39:54;;;;;;;17.17;12.30;;;10.70;99.90;;;;;;5035040;28;20450;-57
2022/12/03 10:42:22;;;;;;;18.67;14.60;;;9.90;99.90;;;;;;5033764;28;20504;-61
2022/12/03 10:44:52;;;;;;;20.73;14.80;;;7.60;99.90;;;;;;5034686;28;20457;-63
2022/12/03 10:47:23;;;;;;;20.33;14.87;;;6.20;99.90;;;;;;5033932;28;20537;-57
2022/12/03 10:50:02;;;;;;;20.50;15.30;;;5.40;99.90;;;;;;5034385;28;20434;-57
2022/12/03 10:52:30;;;;;;;21.57;15.73;;;4.90;99.90;;;;;;5033513;28;20433;-59
2022/12/03 10:54:57;;;;;;;22.20;14.37;;;4.60;99.90;;;;;;5034219;28;20454;-57
2022/12/03 10:57:25;;;;;;;21.27;14.27;;;4.50;99.90;;;;;;5034466;28;20473;-65
2022/12/03 10:59:52;;;;;;;16.30;11.13;;;4.50;99.90;;;;;;5034717;28;20450;-58
2022/12/03 11:02:24;;;;;;;13.73;10.23;;;6.30;99.90;;;;;;5034777;28;20511;-62
2022/12/03 11:04:51;;;;;;;16.97;12.40;;;8.50;99.90;;;;;;5033871;28;20438;-56
2022/12/03 11:07:21;;;;;;;19.60;12.83;;;9.70;99.90;;;;;;5032901;28;20545;-60
2022/12/03 11:09:50;;;;;;;16.53;11.30;;;;;;;;;;5033589;28;20486;-63
2022/12/03 11:12:20;;;;;;;14.90;10.23;;;11.30;99.90;;;;;;5033558;28;20512;-58
2022/12/03 11:15:06;;;;;;;13.40;11.17;;;11.10;99.90;;;;;;5033928;28;20430;-60
2022/12/03 11:17:46;;;;;;;13.50;9.93;;;11.20;99.90;;;;;;5033995;28;20458;-57
2022/12/03 11:21:08;;;;;;;18.20;15.33;;;12.00;99.90;;;;;;5034047;28;20484;-60
2022/12/03 11:24:27;;;;;;;17.97;12.90;;;12.10;99.90;;;;;;4992568;28;21168;-61
2022/12/03 11:27:21;;;;;;;20.10;14.10;;;12.30;99.90;;;;;;4992476;28;20467;-61
2022/12/03 11:30:01;;;;;;;16.77;12.43;;;11.20;99.90;;;;;;5032401;28;20474;-56
2022/12/03 11:33:05;;;;;;;18.80;14.47;;;10.90;99.90;;;;;;5033476;28;20426;-57
2022/12/03 11:36:01;;;;;;;20.20;14.80;;;8.60;99.90;;;;;;5033115;28;20531;-56
2022/12/03 11:38:52;;;;;;;20.37;14.77;;;6.80;99.90;;;;;;5030905;28;20457;-56
2022/12/03 11:41:22;;;;;;;19.10;14.83;;;5.50;99.90;;;;;;5031563;28;20955;-56
2022/12/03 11:44:31;;;;;;;24.53;15.53;;;5.20;99.90;;;;;;5032747;28;20442;-55
2022/12/03 11:47:00;;;;;;;17.40;14.07;;;4.90;99.90;;;;;;5032989;28;20876;-54
2022/12/03 11:49:45;;;;;;;24.30;14.20;;;4.70;99.90;;;;;;5046003;28;20855;-57
2022/12/03 11:52:23;;;;;;;20.23;14.43;;;4.70;99.90;;;;;;5051697;28;20469;-56
2022/12/03 11:54:54;;;;;;;22.33;14.67;;;4.50;99.90;;;;;;5052274;28;20518;-55
2022/12/03 11:57:31;;;;;;;16.97;13.17;;;4.60;99.90;;;;;;5052367;28;20507;-56
2022/12/03 12:00:01;;;;;;;15.00;11.97;;;4.50;99.90;;;;;;5053133;28;20441;-60
2022/12/03 12:02:28;;;;;;;18.60;12.73;;;4.30;99.90;;;;;;5051849;28;21002;-54
2022/12/03 12:04:56;;;;;;;16.13;11.97;;;4.20;99.90;;;;;;5052526;28;20476;-59
2022/12/03 12:07:37;;;;;;;20.10;13.50;;;4.00;99.90;;;;;;5052530;28;20453;-58
2022/12/03 12:10:05;;;;;;;20.43;12.47;;;4.10;99.90;;;;;;5052813;28;20467;-55
2022/12/03 12:12:38;;;;;;;20.67;13.40;;;4.20;99.90;;;;;;5051064;28;20536;-52
2022/12/03 12:15:33;;;;;;;19.93;13.13;;;4.20;99.90;;;;;;5050537;28;20465;-55
2022/12/03 12:18:34;;;;;;;23.77;14.03;;;4.20;99.90;;;;;;5050781;28;21235;-58
2022/12/03 12:21:34;;;;;;;18.90;12.70;;;4.10;99.90;;;;;;5050793;28;20441;-57
2022/12/03 12:24:37;;;;;;;18.47;12.53;;;4.00;99.90;;;;;;5051083;28;20494;-56
2022/12/03 12:27:07;;;;;;;19.60;13.90;;;3.90;99.90;;;;;;5051799;28;20465;-56
2022/12/03 12:29:35;;;;;;;20.63;13.30;;;3.90;99.90;;;;;;5052201;28;20432;-57
2022/12/03 12:32:12;;;;;;;21.50;12.17;;;4.00;99.90;;;;;;5052336;28;20485;-56
2022/12/03 12:34:40;;;;;;;22.70;13.00;;;4.00;99.90;;;;;;5051708;28;20961;-57
2022/12/03 12:37:12;;;;;;;15.60;11.80;;;4.00;99.90;;;;;;5051145;28;20477;-58
2022/12/03 12:39:41;;;;;;;18.00;12.90;;;3.90;99.90;;;;;;5051223;28;20846;-57
2022/12/03 12:42:34;;;;;;;17.90;12.83;;;3.90;99.90;;;;;;5052573;28;20451;-58
2022/12/03 12:45:11;;;;;;;20.20;12.43;;;3.80;99.90;;;;;;5055507;28;20429;-57
2022/12/03 12:47:40;;;;;;;20.80;11.67;;;3.80;99.90;;;;;;5055084;28;20518;-57
2022/12/03 12:50:10;;;;;;;20.37;12.67;;;3.90;99.90;;;;;;5055172;28;20506;-58
2022/12/03 12:52:46;;;;;;;21.53;11.90;;;4.00;99.90;;;;;;5056994;28;20878;-65
2022/12/03 12:55:16;;;;;;;19.13;12.40;;;4.00;99.90;;;;;;5056688;28;20974;-59
2022/12/03 12:57:43;;;;;;;17.87;12.23;;;3.90;99.90;;;;;;5054900;28;20461;-62
2022/12/03 13:00:17;;;;;;;20.10;12.60;;;3.80;99.90;;;;;;5054614;28;21042;-60
2022/12/03 13:02:47;;;;;;;23.90;13.07;;;3.90;99.90;;;;;;5054643;28;20796;-55
2022/12/03 13:05:15;;;;;;;17.00;12.83;;;3.70;99.90;;;;;;5054745;28;20884;-59
2022/12/03 13:07:43;;;;;;;21.20;13.37;;;3.80;99.90;;;;;;5054854;28;20495;-56
2022/12/03 13:10:34;;;;;;;20.33;12.30;;;3.80;99.90;;;;;;5054991;28;20449;-58
2022/12/03 13:13:19;;;;;;;24.17;13.40;;;3.90;99.90;;;;;;5056878;28;20480;-57
2022/12/03 13:15:51;;;;;;;20.47;13.07;;;3.90;99.90;;;;;;5056886;28;20461;-59
2022/12/03 13:18:26;;;;;;;21.43;13.20;;;4.00;99.90;;;;;;5056421;28;20426;-60
2022/12/03 13:20:54;;;;;;;22.30;13.83;;;4.00;99.90;;;;;;5056811;28;20500;-58